createdAt,value
2023-02-03T00:01:12.982Z,31.27
2023-02-03T00:03:42.516Z,34.63
2023-02-03T00:06:11.885Z,31.27
2023-02-03T00:08:43.400Z,33.50
2023-02-03T00:11:12.608Z,34.13
2023-02-03T00:13:41.944Z,31.52
2023-02-03T00:16:22.024Z,33.60
2023-02-03T00:18:51.337Z,31.35
2023-02-03T00:21:20.473Z,32.10
2023-02-03T00:23:51.993Z,32.95
2023-02-03T00:26:21.191Z,31.73
2023-02-03T00:28:55.805Z,32.85
2023-02-03T00:31:26.669Z,32.30
2023-02-03T00:36:35.531Z,31.40
2023-02-03T00:39:12.021Z,28.63
2023-02-03T00:41:41.249Z,30.60
2023-02-03T00:44:10.456Z,35.42
2023-02-03T00:46:49.980Z,33.25
2023-02-03T00:49:30.159Z,34.17
2023-02-03T00:51:59.464Z,33.85
2023-02-03T00:54:32.634Z,30.63
2023-02-03T00:57:08.226Z,30.15
2023-02-03T00:59:37.550Z,33.25
2023-02-03T01:02:13.418Z,31.67
2023-02-03T01:04:53.648Z,36.17
2023-02-03T01:07:22.959Z,34.28
2023-02-03T01:09:55.286Z,36.33
2023-02-03T01:12:32.983Z,32.15
2023-02-03T01:15:02.356Z,35.25
2023-02-03T01:17:33.476Z,37.55
2023-02-03T01:20:02.752Z,35.03
2023-02-03T01:22:39.844Z,37.03
2023-02-03T01:25:12.850Z,32.97
2023-02-03T01:30:12.476Z,34.08
2023-02-03T01:32:41.684Z,33.90
2023-02-03T01:35:11.079Z,33.55
2023-02-03T01:37:45.270Z,33.97
2023-02-03T01:42:51.326Z,33.97
2023-02-03T01:45:30.950Z,33.83
2023-02-03T01:48:06.201Z,35.05
2023-02-03T01:50:38.327Z,34.85
2023-02-03T01:53:13.628Z,33.70
2023-02-03T01:55:48.689Z,34.22
2023-02-03T01:58:24.304Z,33.35
2023-02-03T02:00:57.069Z,34.55
2023-02-03T02:03:29.737Z,32.85
2023-02-03T02:06:05.668Z,31.85
2023-02-03T02:08:35.257Z,31.70
2023-02-03T02:11:07.287Z,27.65
2023-02-03T02:13:39.556Z,33.05
2023-02-03T02:19:02.265Z,29.55
2023-02-03T02:21:50.897Z,32.88
2023-02-03T02:24:50.480Z,31.92
2023-02-03T02:27:34.144Z,31.42
2023-02-03T02:30:43.509Z,31.73
2023-02-03T02:33:21.083Z,32.47
2023-02-03T02:35:59.432Z,31.83
2023-02-03T02:38:48.764Z,36.28
2023-02-03T02:41:25.031Z,31.42
2023-02-03T02:44:03.403Z,32.47
2023-02-03T02:46:40.542Z,32.78
2023-02-03T02:49:18.433Z,35.00
2023-02-03T02:51:50.459Z,34.90
2023-02-03T02:54:23.687Z,33.97
2023-02-03T02:56:57.523Z,30.67
2023-02-03T02:59:31.927Z,31.95
2023-02-03T03:02:01.770Z,35.17
2023-02-03T03:04:35.833Z,32.78
2023-02-03T03:07:10.247Z,31.05
2023-02-03T03:09:44.927Z,32.10
2023-02-03T03:12:18.877Z,34.42
2023-02-03T03:14:57.098Z,32.70
2023-02-03T03:17:29.804Z,33.92
2023-02-03T03:20:11.375Z,36.53
2023-02-03T03:22:45.951Z,32.42
2023-02-03T03:25:19.192Z,38.47
2023-02-03T03:27:53.892Z,34.20
2023-02-03T03:33:07.520Z,36.13
2023-02-03T03:35:49.383Z,33.78
2023-02-03T03:38:25.333Z,34.33
2023-02-03T03:41:01.108Z,37.30
2023-02-03T03:43:33.906Z,35.22
2023-02-03T03:46:06.833Z,33.63
2023-02-03T03:48:47.340Z,38.22
2023-02-03T03:51:22.375Z,34.72
2023-02-03T03:53:54.004Z,36.85
2023-02-03T03:56:34.533Z,34.33
2023-02-03T03:59:10.806Z,36.20
2023-02-03T04:01:41.179Z,35.15
2023-02-03T04:04:13.216Z,36.65
2023-02-03T04:09:13.335Z,32.30
2023-02-03T04:11:55.444Z,35.17
2023-02-03T04:14:24.898Z,40.83
2023-02-03T04:16:53.971Z,38.20
2023-02-03T04:19:23.196Z,34.95
2023-02-03T04:21:54.700Z,37.50
2023-02-03T04:24:23.916Z,41.80
2023-02-03T04:26:52.998Z,33.92
2023-02-03T04:29:22.300Z,39.17
2023-02-03T04:31:51.536Z,39.08
2023-02-03T04:34:20.763Z,43.33
2023-02-03T04:37:02.372Z,37.42
2023-02-03T04:39:31.522Z,39.30
2023-02-03T04:42:01.093Z,36.47
2023-02-03T04:44:30.521Z,40.88
2023-02-03T04:47:07.673Z,39.25
2023-02-03T04:49:36.851Z,39.60
2023-02-03T04:52:08.537Z,38.00
2023-02-03T04:54:37.829Z,40.20
2023-02-03T04:57:07.422Z,36.20
2023-02-03T04:59:36.631Z,36.80
2023-02-03T05:02:05.912Z,37.22
2023-02-03T05:04:35.058Z,37.97
2023-02-03T05:07:04.503Z,40.38
2023-02-03T05:09:41.014Z,39.28
2023-02-03T05:12:10.264Z,41.72
2023-02-03T05:14:39.410Z,44.17
2023-02-03T05:17:13.682Z,41.05
2023-02-03T05:19:43.137Z,40.35
2023-02-03T05:22:22.527Z,39.20
2023-02-03T05:24:53.716Z,38.88
2023-02-03T05:27:23.121Z,38.47
2023-02-03T05:29:52.408Z,41.83
2023-02-03T05:32:26.672Z,41.90
2023-02-03T05:35:05.928Z,41.38
2023-02-03T05:37:35.597Z,44.10
2023-02-03T05:40:21.052Z,40.58
2023-02-03T05:42:51.035Z,40.97
2023-02-03T05:48:02.132Z,40.85
2023-02-03T05:50:33.605Z,43.92
2023-02-03T05:53:11.718Z,41.20
2023-02-03T05:55:47.948Z,44.17
2023-02-03T05:58:17.498Z,41.90
2023-02-03T06:00:47.032Z,48.92
2023-02-03T06:03:16.465Z,45.45
2023-02-03T06:05:45.679Z,39.22
2023-02-03T06:08:14.821Z,43.15
2023-02-03T06:10:43.953Z,41.88
2023-02-03T06:13:20.208Z,41.83
2023-02-03T06:15:49.512Z,38.08
2023-02-03T06:18:18.654Z,42.58
2023-02-03T06:21:00.204Z,45.53
2023-02-03T06:23:29.414Z,39.33
2023-02-03T06:25:59.969Z,42.08
2023-02-03T06:28:33.113Z,40.53
2023-02-03T06:31:08.771Z,44.67
2023-02-03T06:33:38.071Z,40.35
2023-02-03T06:36:07.977Z,41.90
2023-02-03T06:38:37.151Z,50.05
2023-02-03T06:41:06.643Z,42.83
2023-02-03T06:43:43.390Z,41.75
2023-02-03T06:46:14.003Z,43.92
2023-02-03T06:48:43.202Z,43.90
2023-02-03T06:51:12.295Z,45.13
2023-02-03T06:53:54.976Z,45.88
2023-02-03T06:56:24.122Z,46.08
2023-02-03T06:58:55.152Z,41.25
2023-02-03T07:01:25.502Z,44.15
2023-02-03T07:03:57.491Z,40.38
2023-02-03T07:06:28.764Z,41.47
2023-02-03T07:08:59.519Z,43.28
2023-02-03T07:11:30.488Z,40.83
2023-02-03T07:14:06.954Z,41.60
2023-02-03T07:16:37.125Z,47.50
2023-02-03T07:19:12.863Z,44.17
2023-02-03T07:21:42.218Z,43.72
2023-02-03T07:24:11.609Z,45.47
2023-02-03T07:26:46.636Z,41.50
2023-02-03T07:29:17.712Z,46.45
2023-02-03T07:31:52.234Z,42.45
2023-02-03T07:34:21.396Z,42.03
2023-02-03T07:36:55.965Z,40.50
2023-02-03T07:39:26.091Z,43.53
2023-02-03T07:41:55.506Z,43.10
2023-02-03T07:44:27.656Z,45.20
2023-02-03T07:46:57.262Z,39.25
2023-02-03T07:49:26.463Z,40.38
2023-02-03T07:51:56.099Z,40.38
2023-02-03T07:54:25.210Z,38.42
2023-02-03T07:56:54.560Z,35.33
2023-02-03T07:59:23.587Z,37.15
2023-02-03T08:01:55.845Z,38.08
2023-02-03T08:04:25.270Z,41.60
2023-02-03T08:06:54.807Z,51.58
2023-02-03T08:09:24.009Z,39.38
2023-02-03T08:11:53.534Z,39.03
2023-02-03T08:14:23.521Z,38.80
2023-02-03T08:16:54.526Z,36.25
2023-02-03T08:19:23.679Z,37.83
2023-02-03T08:21:52.804Z,37.63
2023-02-03T08:24:22.861Z,40.50
2023-02-03T08:26:52.554Z,35.42
2023-02-03T08:29:26.865Z,32.85
2023-02-03T08:31:59.738Z,31.83
2023-02-03T08:34:29.291Z,32.10
2023-02-03T08:36:58.454Z,28.85
2023-02-03T08:39:27.827Z,31.52
2023-02-03T08:41:57.023Z,33.75
2023-02-03T08:44:26.405Z,32.50
2023-02-03T08:46:58.002Z,30.00
2023-02-03T08:49:29.255Z,33.30
2023-02-03T08:52:04.097Z,30.45
2023-02-03T08:54:33.318Z,30.05
2023-02-03T08:57:05.134Z,32.53
2023-02-03T09:02:18.200Z,38.28
2023-02-03T09:04:49.947Z,35.83
2023-02-03T09:07:19.296Z,41.78
2023-02-03T09:09:48.533Z,38.33
2023-02-03T09:12:22.755Z,33.33
2023-02-03T09:14:52.438Z,37.53
2023-02-03T09:17:23.665Z,40.10
2023-02-03T09:19:52.945Z,37.30
2023-02-03T09:22:22.051Z,40.45
2023-02-03T09:24:56.950Z,40.20
2023-02-03T09:27:26.090Z,40.13
2023-02-03T09:29:55.283Z,34.70
2023-02-03T09:32:33.531Z,35.78
2023-02-03T09:35:02.715Z,37.88
2023-02-03T09:37:32.729Z,36.42
2023-02-03T09:40:08.500Z,38.92
2023-02-03T09:43:05.602Z,32.75
2023-02-03T09:45:40.127Z,38.25
2023-02-03T09:48:18.542Z,33.15
2023-02-03T09:50:50.486Z,30.77
2023-02-03T09:53:29.679Z,31.95
2023-02-03T09:56:01.509Z,32.40
2023-02-03T09:58:35.781Z,29.67
2023-02-03T10:01:10.507Z,29.65
2023-02-03T10:03:53.937Z,28.38
2023-02-03T10:06:33.529Z,30.30
2023-02-03T10:09:21.362Z,27.90
2023-02-03T10:12:05.752Z,26.45
2023-02-03T10:14:48.319Z,26.67
2023-02-03T10:17:30.000Z,24.20
2023-02-03T10:20:06.626Z,25.52
2023-02-03T10:22:42.491Z,26.00
2023-02-03T10:25:24.392Z,23.92
2023-02-03T10:30:25.694Z,22.52
2023-02-03T10:32:57.702Z,26.95
2023-02-03T10:38:01.125Z,22.98
2023-02-03T10:40:31.266Z,26.77
2023-02-03T10:43:13.959Z,23.67
2023-02-03T10:45:43.259Z,25.98
2023-02-03T10:48:17.665Z,23.80
2023-02-03T10:50:52.055Z,22.90
2023-02-03T10:53:28.460Z,19.75
2023-02-03T10:56:07.135Z,21.90
2023-02-03T10:58:38.348Z,20.10
2023-02-03T11:01:19.716Z,20.95
2023-02-03T11:03:59.821Z,20.48
2023-02-03T11:06:32.462Z,23.10
2023-02-03T11:09:26.038Z,21.85
2023-02-03T11:12:14.124Z,20.75
2023-02-03T11:14:44.940Z,22.80
2023-02-03T11:17:19.231Z,25.20
2023-02-03T11:19:50.399Z,21.20
2023-02-03T11:22:32.607Z,22.67
2023-02-03T11:27:34.996Z,21.80
2023-02-03T11:30:17.089Z,21.58
2023-02-03T11:35:24.631Z,23.38
2023-02-03T11:37:57.060Z,20.83
2023-02-03T11:40:28.313Z,23.15
2023-02-03T11:43:06.947Z,21.23
2023-02-03T11:45:42.205Z,20.48
2023-02-03T11:48:30.270Z,22.08
2023-02-03T11:51:11.747Z,22.42
2023-02-03T11:53:59.846Z,20.98
2023-02-03T11:56:37.908Z,22.67
2023-02-03T11:59:37.589Z,22.00
2023-02-03T12:02:43.906Z,18.98
2023-02-03T12:05:31.038Z,20.50
2023-02-03T12:08:18.066Z,17.90
2023-02-03T12:11:02.964Z,18.88
2023-02-03T12:14:10.030Z,18.38
2023-02-03T12:17:05.986Z,20.40
2023-02-03T12:19:49.852Z,18.60
2023-02-03T12:22:27.985Z,16.10
2023-02-03T12:25:06.198Z,16.33
2023-02-03T12:27:48.630Z,14.38
2023-02-03T12:32:55.808Z,15.57
2023-02-03T12:35:32.085Z,17.33
2023-02-03T12:38:07.305Z,16.35
2023-02-03T12:40:41.999Z,15.57
2023-02-03T12:43:29.548Z,14.95
2023-02-03T12:46:03.178Z,15.48
2023-02-03T12:53:54.177Z,13.55
2023-02-03T12:56:29.625Z,15.80
2023-02-03T12:59:09.856Z,16.38
2023-02-03T13:01:46.918Z,20.38
2023-02-03T13:04:32.040Z,19.80
2023-02-03T13:07:10.311Z,18.10
2023-02-03T13:09:54.959Z,15.98
2023-02-03T13:12:31.583Z,17.13
2023-02-03T13:15:14.103Z,16.20
2023-02-03T13:17:50.365Z,16.98
2023-02-03T13:20:24.206Z,17.73
2023-02-03T13:22:53.893Z,18.13
2023-02-03T13:25:29.115Z,16.92
2023-02-03T13:28:20.268Z,16.75
2023-02-03T13:31:15.027Z,17.33
2023-02-03T13:34:04.026Z,16.05
2023-02-03T13:37:01.124Z,15.55
2023-02-03T13:39:53.500Z,16.48
2023-02-03T13:42:28.248Z,15.93
2023-02-03T13:45:01.914Z,17.05
2023-02-03T13:47:34.668Z,16.35
2023-02-03T13:50:07.163Z,14.93
2023-02-03T13:52:42.302Z,19.17
2023-02-03T13:55:31.047Z,18.90
2023-02-03T13:58:03.879Z,18.52
2023-02-03T14:01:03.358Z,17.20
2023-02-03T14:03:48.754Z,15.57
2023-02-03T14:07:02.239Z,19.80
2023-02-03T14:10:23.516Z,18.88
2023-02-03T14:13:03.995Z,16.00
2023-02-03T14:15:39.237Z,16.92
2023-02-03T14:18:36.718Z,19.45
2023-02-03T14:21:14.839Z,20.65
2023-02-03T14:23:49.945Z,20.70
2023-02-03T14:26:36.007Z,19.90
2023-02-03T14:29:10.711Z,21.33
2023-02-03T14:31:57.249Z,21.45
2023-02-03T14:34:39.638Z,19.50
2023-02-03T14:37:16.452Z,20.92
2023-02-03T14:40:15.206Z,20.55
2023-02-03T14:43:22.380Z,21.17
2023-02-03T14:46:18.788Z,21.38
2023-02-03T14:48:59.631Z,25.73
2023-02-03T14:51:47.152Z,26.00
2023-02-03T14:54:31.196Z,20.98
2023-02-03T14:57:19.208Z,26.40
2023-02-03T14:59:52.068Z,22.48
2023-02-03T15:02:31.761Z,22.58
2023-02-03T15:05:36.412Z,23.88
2023-02-03T15:08:06.121Z,23.80
2023-02-03T15:10:44.247Z,25.83
2023-02-03T15:16:19.679Z,23.83
2023-02-03T15:18:57.428Z,23.58
2023-02-03T15:21:27.124Z,25.02
2023-02-03T15:23:56.737Z,23.33
2023-02-03T15:26:28.647Z,23.08
2023-02-03T15:29:01.897Z,29.08
2023-02-03T15:31:35.795Z,30.38
2023-02-03T15:34:12.990Z,23.58
2023-02-03T15:36:47.635Z,25.73
2023-02-03T15:39:24.129Z,26.60
2023-02-03T15:41:56.564Z,28.92
2023-02-03T15:44:32.526Z,27.65
2023-02-03T15:47:05.826Z,28.83
2023-02-03T15:49:42.313Z,30.33
2023-02-03T15:52:17.427Z,27.63
2023-02-03T15:54:58.958Z,24.58
2023-02-03T15:57:38.483Z,27.08
2023-02-03T16:00:25.911Z,29.30
2023-02-03T16:02:57.765Z,26.83
2023-02-03T16:05:32.045Z,26.52
2023-02-03T16:08:31.233Z,23.85
2023-02-03T16:13:35.630Z,23.75
2023-02-03T16:16:09.965Z,25.58
2023-02-03T16:18:58.228Z,26.92
2023-02-03T16:21:35.565Z,27.55
2023-02-03T16:24:45.752Z,24.77
2023-02-03T16:27:33.813Z,27.00
2023-02-03T16:30:36.519Z,27.52
2023-02-03T16:33:31.238Z,25.20
2023-02-03T16:36:26.308Z,28.25
2023-02-03T16:39:10.451Z,25.55
2023-02-03T16:41:52.961Z,22.75
2023-02-03T16:44:35.078Z,26.63
2023-02-03T16:47:18.395Z,22.25
2023-02-03T16:50:00.493Z,23.10
2023-02-03T16:55:00.817Z,27.73
2023-02-03T16:59:59.331Z,23.13
2023-02-03T17:02:28.517Z,25.88
2023-02-03T17:04:58.191Z,24.15
2023-02-03T17:07:27.994Z,23.75
2023-02-03T17:09:57.253Z,25.80
2023-02-03T17:12:30.809Z,23.35
2023-02-03T17:15:00.176Z,22.52
2023-02-03T17:17:29.699Z,22.98
2023-02-03T17:20:05.307Z,23.75
2023-02-03T17:22:34.574Z,21.40
2023-02-03T17:25:03.942Z,26.55
2023-02-03T17:27:35.671Z,24.42
2023-02-03T17:30:05.151Z,22.33
2023-02-03T17:32:34.561Z,21.98
2023-02-03T17:35:03.815Z,22.75
2023-02-03T17:37:35.054Z,22.17
2023-02-03T17:54:04.399Z,21.80
2023-02-03T17:56:36.137Z,22.70
2023-02-03T17:59:07.644Z,20.45
2023-02-03T18:01:38.190Z,20.33
2023-02-03T18:04:08.427Z,20.67
2023-02-03T18:06:37.904Z,22.20
2023-02-03T18:09:09.770Z,17.38
2023-02-03T18:11:39.821Z,19.60
2023-02-03T18:14:13.286Z,19.27
2023-02-03T18:16:44.023Z,20.23
2023-02-03T18:19:16.255Z,20.15
2023-02-03T18:21:47.107Z,17.63
2023-02-03T18:24:21.935Z,18.73
2023-02-03T18:26:53.056Z,20.95
2023-02-03T18:29:24.447Z,18.57
2023-02-03T18:31:53.746Z,18.70
2023-02-03T18:34:23.438Z,21.65
2023-02-03T18:36:57.771Z,21.00
2023-02-03T18:39:27.122Z,19.85
2023-02-03T18:41:56.268Z,19.92
2023-02-03T18:44:27.498Z,18.55
2023-02-03T18:47:04.837Z,17.65
2023-02-03T18:49:36.307Z,18.98
2023-02-03T18:52:06.464Z,14.97
2023-02-03T18:54:35.587Z,14.02
2023-02-03T18:57:05.430Z,13.43
2023-02-03T18:59:36.578Z,8.40
2023-02-03T19:02:05.927Z,8.90
2023-02-03T19:04:35.785Z,8.95
2023-02-03T19:07:05.048Z,6.45
2023-02-03T19:09:34.685Z,6.22
2023-02-03T19:12:04.531Z,7.15
2023-02-03T19:14:42.069Z,5.82
2023-02-03T19:17:11.902Z,6.03
2023-02-03T19:22:16.582Z,7.68
2023-02-03T19:24:45.709Z,7.22
2023-02-03T19:27:14.997Z,8.88
2023-02-03T19:29:45.997Z,9.00
2023-02-03T19:32:15.591Z,8.50
2023-02-03T19:34:49.790Z,9.80
2023-02-03T19:37:19.151Z,9.10
2023-02-03T19:39:51.115Z,6.97
2023-02-03T19:42:20.493Z,7.50
2023-02-03T19:44:52.181Z,8.85
2023-02-03T19:47:21.399Z,8.40
2023-02-03T19:49:50.634Z,8.45
2023-02-03T19:52:20.002Z,8.98
2023-02-03T19:54:51.789Z,9.68
2023-02-03T19:59:58.272Z,8.60
2023-02-03T20:02:27.647Z,8.40
2023-02-03T20:04:57.180Z,9.23
2023-02-03T20:07:28.119Z,8.70
2023-02-03T20:10:02.770Z,10.65
2023-02-03T20:12:32.611Z,12.27
2023-02-03T20:15:04.186Z,8.80
2023-02-03T20:17:33.649Z,8.48
2023-02-03T20:20:03.836Z,9.60
2023-02-03T20:22:33.926Z,8.70
2023-02-03T20:25:03.099Z,8.23
2023-02-03T20:27:32.606Z,10.63
2023-02-03T20:30:03.924Z,10.05
2023-02-03T20:32:34.063Z,10.20
2023-02-03T20:35:03.684Z,10.10
2023-02-03T20:37:35.600Z,11.93
2023-02-03T20:40:05.567Z,9.20
2023-02-03T20:42:35.767Z,10.90
2023-02-03T20:45:12.534Z,12.52
2023-02-03T20:47:47.288Z,11.82
2023-02-03T20:50:21.727Z,12.27
2023-02-03T20:52:58.466Z,12.70
2023-02-03T20:55:35.752Z,12.13
2023-02-03T20:58:06.622Z,13.18
2023-02-03T21:00:39.191Z,13.65
2023-02-03T21:03:29.175Z,13.82
2023-02-03T21:05:58.999Z,16.15
2023-02-03T21:08:33.833Z,13.90
2023-02-03T21:11:03.031Z,12.82
2023-02-03T21:13:37.583Z,11.65
2023-02-03T21:16:18.189Z,12.27
2023-02-03T21:18:50.862Z,12.82
2023-02-03T21:21:24.606Z,10.50
2023-02-03T21:24:00.232Z,9.45
2023-02-03T21:26:32.391Z,12.50
2023-02-03T21:29:03.595Z,10.55
2023-02-03T21:31:36.109Z,9.50
2023-02-03T21:36:55.163Z,10.65
2023-02-03T21:39:30.560Z,11.98
2023-02-03T21:42:04.488Z,11.35
2023-02-03T21:44:42.767Z,11.00
2023-02-03T21:47:19.264Z,12.15
2023-02-03T21:49:53.608Z,10.40
2023-02-03T21:52:22.662Z,6.13
2023-02-03T21:54:51.997Z,8.07
2023-02-03T21:57:22.302Z,8.02
2023-02-03T21:59:51.424Z,5.55
2023-02-03T22:02:49.637Z,5.18
2023-02-03T22:05:18.897Z,4.75
2023-02-03T22:07:47.905Z,5.32
2023-02-03T22:10:17.616Z,6.88
2023-02-03T22:12:46.729Z,6.32
2023-02-03T22:15:16.048Z,5.05
2023-02-03T22:17:49.338Z,5.32
2023-02-03T22:20:18.659Z,5.43
2023-02-03T22:25:29.225Z,7.40
2023-02-03T22:28:03.382Z,4.07
2023-02-03T22:30:33.178Z,7.72
2023-02-03T22:33:04.444Z,5.63
2023-02-03T22:35:33.933Z,5.80
2023-02-03T22:38:03.074Z,6.65
2023-02-03T22:40:32.857Z,4.60
2023-02-03T22:43:02.670Z,5.93
2023-02-03T22:45:32.167Z,5.82
2023-02-03T22:48:01.329Z,4.78
2023-02-03T22:50:35.910Z,4.75
2023-02-03T22:53:06.643Z,6.07
2023-02-03T22:55:35.730Z,4.32
2023-02-03T22:58:05.350Z,5.93
2023-02-03T23:00:39.583Z,5.38
2023-02-03T23:03:09.208Z,6.03
2023-02-03T23:05:40.304Z,4.63
2023-02-03T23:08:09.492Z,4.68
2023-02-03T23:10:38.687Z,4.22
2023-02-03T23:15:53.484Z,6.40
2023-02-03T23:18:22.644Z,5.82
2023-02-03T23:20:53.776Z,5.35
2023-02-03T23:23:23.089Z,8.10
2023-02-03T23:25:52.112Z,8.70
2023-02-03T23:28:21.699Z,6.07
2023-02-03T23:30:52.168Z,7.50
2023-02-03T23:33:21.767Z,7.72
2023-02-03T23:35:50.242Z,8.38
2023-02-03T23:38:21.280Z,8.07
2023-02-03T23:40:50.733Z,8.38
2023-02-03T23:43:20.926Z,10.32
2023-02-03T23:45:50.062Z,9.15
2023-02-03T23:48:19.210Z,11.13
2023-02-03T23:50:48.669Z,7.85
2023-02-03T23:53:17.808Z,8.52
2023-02-03T23:55:55.263Z,11.10
2023-02-03T23:58:24.638Z,9.73
